Galena, Illinois
Current Conditions -  °F | °C
As of 6:53 PM on Monday 22 Dec 2014 (Local Time) from KDBQ Reporting Station
Haze Haze  
Wind Chill: 26°   Ceiling: 200
Heat Index: 35°   Visibility: 0.75mi
Dew Point: 35°   Wind: 13mph
Humidity: 100%   Direction: 110°ESE
Pressure: 29.57"   Gusts: NA
Location:  42.42°N, 90.43°W
Report Text: KDBQ 230053Z 11011KT 3/4SM R36/4000V4500FT BR VV002 02/02 A2957 RMK AO2 SLP022 T00170017
Loading
Personal Weather Stations






























Interactive Weather Map New forecast layout! Learn more

10-Day Weather Forecast

Advertisements
Track Severe Weather on mobile